Paxville, South Carolina
Current Conditions -  °F | °C
As of 3:15 PM on Monday 26 Jan 2015 (Local Time) from KCKI Reporting Station
Overcast Overcast  
Wind Chill: 54°   Ceiling: 6000
Heat Index: 54°   Visibility: 10mi
Dew Point: 52°   Wind: 5mph
Humidity: 94%   Direction: 280°W
Pressure: 29.61"   Gusts: NA
Location:  33.6434°N, 80.1966°W
Report Text: KCKI 262015Z AUTO 28004KT 10SM SCT041 BKN060 OVC070 12/11 A2961 RMK AO2
Loading
Personal Weather Stations






























Interactive Weather Map New forecast layout! Learn more

10-Day Weather Forecast

Advertisements
Track Severe Weather on mobile